Time;durP1;ratioP1;P1;durP2;ratioP2;P2;SDS_P1;SDS_P2;PMS_P1;PMS_P2;Temp;Humidity;BMP_temperature;BMP_pressure;BME280_temperature;BME280_humidity;BME280_pressure;Samples;Min_cycle;Max_cycle;Signal;HPM_P1;HPM_P2
2023/03/12 00:01:32;;;;;;;7.32;2.22;;;3.20;99.90;;;;;;4848600;29;20174;-69
2023/03/12 00:04:00;;;;;;;3.78;1.45;;;3.10;99.90;;;;;;4833356;29;20114;-69
2023/03/12 00:06:26;;;;;;;6.45;2.17;;;3.10;99.90;;;;;;4832314;29;20060;-69
2023/03/12 00:08:51;;;;;;;5.80;1.83;;;3.10;99.90;;;;;;4848239;29;20041;-69
2023/03/12 00:11:19;;;;;;;5.60;2.08;;;3.10;99.90;;;;;;4848526;29;20038;-69
2023/03/12 00:13:52;;;;;;;4.88;1.85;;;3.00;99.90;;;;;;4847425;29;20129;-70
2023/03/12 00:16:18;;;;;;;6.88;2.28;;;3.10;99.90;;;;;;4847761;29;20046;-69
2023/03/12 00:18:47;;;;;;;6.57;1.92;;;3.10;99.90;;;;;;4847360;29;20094;-69
2023/03/12 00:21:13;;;;;;;4.78;2.40;;;3.10;99.90;;;;;;4848322;29;20041;-69
2023/03/12 00:23:39;;;;;;;8.40;2.17;;;3.10;99.90;;;;;;4848608;29;20508;-69
2023/03/12 00:26:08;;;;;;;8.57;2.20;;;3.10;99.90;;;;;;4866522;29;20060;-69
2023/03/12 00:28:34;;;;;;;6.90;2.50;;;3.20;99.90;;;;;;4866553;29;20037;-69
2023/03/12 00:31:00;;;;;;;4.75;2.17;;;3.20;99.90;;;;;;4850171;29;20044;-69
2023/03/12 00:33:28;;;;;;;7.97;3.20;;;3.20;99.90;;;;;;4834535;29;20038;-69
2023/03/12 00:35:55;;;;;;;5.38;2.90;;;3.10;99.90;;;;;;4850326;29;20092;-70
2023/03/12 00:38:21;;;;;;;6.07;3.22;;;3.20;99.90;;;;;;4849756;29;20045;-69
2023/03/12 00:40:46;;;;;;;7.80;3.00;;;3.20;99.90;;;;;;4865320;29;20428;-69
2023/03/12 00:43:12;;;;;;;9.10;2.80;;;3.20;99.90;;;;;;4834870;29;20056;-69
2023/03/12 00:45:38;;;;;;;4.93;2.60;;;3.20;99.90;;;;;;4849532;29;20500;-69
2023/03/12 00:48:04;;;;;;;6.82;2.40;;;3.30;99.90;;;;;;4834432;29;20313;-71
2023/03/12 00:50:29;;;;;;;4.53;2.83;;;3.20;99.90;;;;;;4866218;29;20056;-69
2023/03/12 00:52:55;;;;;;;4.78;2.60;;;3.20;99.90;;;;;;4849693;29;20443;-69
2023/03/12 00:55:21;;;;;;;6.40;2.60;;;3.20;99.90;;;;;;4865504;29;20049;-69
2023/03/12 00:57:47;;;;;;;4.03;2.25;;;3.10;99.90;;;;;;4849668;29;20053;-69
2023/03/12 01:00:13;;;;;;;5.10;2.38;;;3.20;99.90;;;;;;4849836;29;20328;-69
2023/03/12 01:02:39;;;;;;;7.82;3.17;;;3.00;99.90;;;;;;4865902;29;20048;-69
2023/03/12 01:05:07;;;;;;;5.47;2.63;;;3.00;99.90;;;;;;4849626;29;20041;-69
2023/03/12 01:07:34;;;;;;;4.63;2.38;;;2.90;99.90;;;;;;4865911;29;20045;-69
2023/03/12 01:10:00;;;;;;;12.20;3.20;;;3.10;99.90;;;;;;4865869;29;20369;-69
2023/03/12 01:12:25;;;;;;;5.13;2.85;;;3.00;99.90;;;;;;4865784;29;20049;-69
2023/03/12 01:14:51;;;;;;;7.03;2.88;;;3.00;99.90;;;;;;4849241;29;20173;-69
2023/03/12 01:17:17;;;;;;;5.57;3.15;;;3.00;99.90;;;;;;4834303;29;20369;-69
2023/03/12 01:19:42;;;;;;;7.28;2.67;;;2.90;99.90;;;;;;4849331;29;20053;-69
2023/03/12 01:22:08;;;;;;;7.78;2.83;;;2.90;99.90;;;;;;4834195;29;20193;-69
2023/03/12 01:24:34;;;;;;;6.82;3.20;;;2.90;99.90;;;;;;4830370;29;20061;-69
2023/03/12 01:27:00;;;;;;;5.25;2.72;;;3.00;99.90;;;;;;4846482;29;20046;-69
2023/03/12 01:29:26;;;;;;;6.50;2.90;;;3.00;99.90;;;;;;4846156;29;20099;-69
2023/03/12 01:31:51;;;;;;;5.80;2.90;;;2.90;99.90;;;;;;4845721;29;20443;-69
2023/03/12 01:34:17;;;;;;;14.10;2.95;;;2.90;99.90;;;;;;4830822;29;20042;-68
2023/03/12 01:36:45;;;;;;;6.32;2.85;;;3.00;99.90;;;;;;4861576;29;20046;-69
2023/03/12 01:39:10;;;;;;;8.32;3.60;;;2.90;99.90;;;;;;4845611;29;20053;-69
2023/03/12 01:41:36;;;;;;;8.55;3.28;;;2.80;99.90;;;;;;4830407;29;20121;-69
2023/03/12 01:44:03;;;;;;;10.52;3.08;;;2.80;99.90;;;;;;4845497;29;20053;-69
2023/03/12 01:46:42;;;;;;;7.65;3.67;;;2.80;99.90;;;;;;4846791;29;20038;-69
2023/03/12 01:49:16;;;;;;;5.95;3.25;;;2.90;99.90;;;;;;4845659;29;20483;-69
2023/03/12 01:52:08;;;;;;;14.77;3.35;;;2.90;99.90;;;;;;4846437;29;20046;-69
2023/03/12 01:54:44;;;;;;;6.93;3.38;;;3.00;99.90;;;;;;4845722;29;20065;-69
2023/03/12 01:57:17;;;;;;;8.15;3.80;;;2.90;99.90;;;;;;4846342;29;20050;-69
2023/03/12 01:59:51;;;;;;;5.28;3.33;;;2.90;99.90;;;;;;4830467;29;20141;-69
2023/03/12 02:02:22;;;;;;;7.38;3.53;;;2.90;99.90;;;;;;4845325;29;20061;-69
2023/03/12 02:04:51;;;;;;;8.13;3.80;;;2.90;99.90;;;;;;4831142;29;20042;-69
2023/03/12 02:07:17;;;;;;;8.13;3.63;;;3.10;99.90;;;;;;4861795;29;20048;-69
2023/03/12 02:09:47;;;;;;;9.15;3.47;;;3.00;99.90;;;;;;4830051;29;20049;-69
2023/03/12 02:12:13;;;;;;;8.55;3.58;;;2.90;99.90;;;;;;4876130;29;20062;-69
2023/03/12 02:14:39;;;;;;;7.13;3.83;;;3.00;99.90;;;;;;4845249;29;20050;-69
2023/03/12 02:17:05;;;;;;;9.98;3.15;;;3.00;99.90;;;;;;4846825;29;20366;-69
2023/03/12 02:20:06;;;;;;;8.00;3.90;;;3.10;99.90;;;;;;4846317;29;20046;-69
2023/03/12 02:22:34;;;;;;;10.18;2.70;;;3.10;99.90;;;;;;4846059;29;20050;-69
2023/03/12 02:25:25;;;;;;;7.07;3.30;;;3.10;99.90;;;;;;4844944;29;20077;-68
2023/03/12 02:27:51;;;;;;;5.20;3.22;;;3.10;99.90;;;;;;4847001;29;20069;-68
2023/03/12 02:30:18;;;;;;;7.82;3.30;;;3.20;99.90;;;;;;4844788;29;20053;-68
2023/03/12 02:32:45;;;;;;;6.18;3.28;;;3.20;99.90;;;;;;4845104;29;20046;-69
2023/03/12 02:35:12;;;;;;;5.95;2.80;;;3.00;99.90;;;;;;4846060;29;20053;-68
2023/03/12 02:37:53;;;;;;;9.13;3.70;;;3.10;99.90;;;;;;4844678;29;20129;-69
2023/03/12 02:40:42;;;;;;;8.80;3.53;;;3.10;99.90;;;;;;4830168;29;20382;-69
2023/03/12 02:43:09;;;;;;;7.88;3.45;;;3.10;99.90;;;;;;4876496;29;20050;-69
2023/03/12 02:45:37;;;;;;;6.75;3.15;;;3.00;99.90;;;;;;4875480;29;20050;-69
2023/03/12 02:48:07;;;;;;;6.78;3.72;;;3.00;99.90;;;;;;4876042;29;20120;-69
2023/03/12 02:50:33;;;;;;;10.45;3.22;;;3.10;99.90;;;;;;4844663;29;20049;-69
2023/03/12 02:52:58;;;;;;;9.25;3.60;;;3.10;99.90;;;;;;4851386;29;20044;-70
2023/03/12 02:55:24;;;;;;;9.50;3.25;;;3.10;99.90;;;;;;4862337;29;20076;-70
2023/03/12 02:57:50;;;;;;;10.25;3.78;;;3.20;99.90;;;;;;4864360;29;20102;-69
2023/03/12 03:00:16;;;;;;;9.35;3.75;;;3.30;99.90;;;;;;4864367;29;20052;-69
2023/03/12 03:02:42;;;;;;;7.10;2.90;;;3.20;99.90;;;;;;4847655;29;20496;-70
2023/03/12 03:05:09;;;;;;;7.45;3.15;;;3.10;99.90;;;;;;4848052;29;20077;-70
2023/03/12 03:07:35;;;;;;;8.52;2.67;;;3.10;99.90;;;;;;4863768;29;20037;-69
2023/03/12 03:10:03;;;;;;;5.88;3.05;;;3.00;99.90;;;;;;4847875;29;20040;-69
2023/03/12 03:12:36;;;;;;;8.45;3.20;;;2.70;99.90;;;;;;4863986;29;20407;-69
2023/03/12 03:15:03;;;;;;;9.88;3.47;;;3.00;99.90;;;;;;4848332;29;20049;-69
2023/03/12 03:17:28;;;;;;;8.70;3.38;;;2.90;99.90;;;;;;4863450;29;20042;-69
2023/03/12 03:19:55;;;;;;;8.90;3.03;;;2.80;99.90;;;;;;4863901;29;20038;-69
2023/03/12 03:22:21;;;;;;;8.60;2.85;;;2.70;99.90;;;;;;4864162;29;20041;-69
2023/03/12 03:24:47;;;;;;;6.03;2.60;;;2.70;99.90;;;;;;4874157;29;20081;-69
2023/03/12 03:27:14;;;;;;;7.00;3.10;;;2.80;99.90;;;;;;4865970;29;20077;-69
2023/03/12 03:29:40;;;;;;;9.20;3.22;;;2.90;99.90;;;;;;4851429;29;20320;-69
2023/03/12 03:32:06;;;;;;;5.97;3.30;;;3.00;99.90;;;;;;4882589;29;20044;-69
2023/03/12 03:34:32;;;;;;;11.95;2.80;;;2.90;99.90;;;;;;4882582;29;20052;-69
2023/03/12 03:36:57;;;;;;;5.38;2.70;;;3.00;99.90;;;;;;4882195;29;20036;-69
2023/03/12 03:39:24;;;;;;;13.30;3.55;;;3.00;99.90;;;;;;4866047;29;20100;-69
2023/03/12 03:41:51;;;;;;;7.78;3.28;;;3.10;99.90;;;;;;4882533;29;20052;-69
2023/03/12 03:44:17;;;;;;;9.07;3.05;;;3.00;99.90;;;;;;4865940;29;20056;-69
2023/03/12 03:46:43;;;;;;;6.88;2.80;;;3.10;99.90;;;;;;4882438;29;20081;-70
2023/03/12 03:49:09;;;;;;;7.10;2.72;;;2.80;99.90;;;;;;4882455;29;20064;-69
2023/03/12 03:51:35;;;;;;;8.80;2.90;;;2.90;99.90;;;;;;4868709;29;20056;-69
2023/03/12 03:54:00;;;;;;;10.15;2.90;;;2.90;99.90;;;;;;4853482;29;20383;-69
2023/03/12 03:56:26;;;;;;;6.70;2.65;;;3.20;99.90;;;;;;4885801;29;20311;-69
2023/03/12 03:58:52;;;;;;;8.68;2.70;;;3.20;99.90;;;;;;4884823;29;20045;-69
2023/03/12 04:01:18;;;;;;;7.35;2.92;;;3.20;99.90;;;;;;4884743;29;20036;-69
2023/03/12 04:03:44;;;;;;;9.32;3.05;;;3.10;99.90;;;;;;4869498;29;20045;-69
2023/03/12 04:06:10;;;;;;;7.70;2.97;;;3.00;99.90;;;;;;4853398;29;20055;-69
2023/03/12 04:08:36;;;;;;;5.93;2.60;;;3.10;99.90;;;;;;4884682;29;20113;-69
2023/03/12 04:11:16;;;;;;;8.32;2.97;;;3.20;99.90;;;;;;4869076;29;20314;-69
2023/03/12 04:13:43;;;;;;;9.30;2.90;;;3.10;99.90;;;;;;4868891;29;20480;-69
2023/03/12 04:16:09;;;;;;;6.47;2.88;;;3.10;99.90;;;;;;4868953;29;20045;-69
2023/03/12 04:18:35;;;;;;;11.70;3.22;;;3.10;99.90;;;;;;4853274;29;20052;-69
2023/03/12 04:21:01;;;;;;;11.00;2.72;;;3.00;99.90;;;;;;4884075;29;20052;-69
2023/03/12 04:23:27;;;;;;;10.18;3.40;;;2.90;99.90;;;;;;4867961;29;20044;-70
2023/03/12 04:25:53;;;;;;;6.50;2.85;;;3.00;99.90;;;;;;4866952;29;20057;-68
2023/03/12 04:28:18;;;;;;;9.07;2.90;;;3.10;99.90;;;;;;4868774;29;20411;-69
2023/03/12 04:30:44;;;;;;;6.97;3.15;;;3.20;99.90;;;;;;4838378;29;20044;-69
2023/03/12 04:33:10;;;;;;;9.27;3.10;;;3.30;99.90;;;;;;4884151;29;20469;-69
2023/03/12 04:35:36;;;;;;;7.60;3.00;;;3.30;99.90;;;;;;4869246;29;20033;-69
2023/03/12 04:38:02;;;;;;;7.47;3.30;;;3.20;99.90;;;;;;4868715;29;20327;-69
2023/03/12 04:40:28;;;;;;;7.20;3.63;;;3.10;99.90;;;;;;4868743;29;20041;-69
2023/03/12 04:42:54;;;;;;;5.97;2.97;;;3.10;99.90;;;;;;4868621;29;20059;-69
2023/03/12 04:45:20;;;;;;;7.88;3.72;;;2.90;99.90;;;;;;4868188;29;20060;-69
2023/03/12 04:47:45;;;;;;;7.95;3.13;;;3.00;99.90;;;;;;4838056;29;20036;-69
2023/03/12 04:50:12;;;;;;;6.70;2.65;;;3.00;99.90;;;;;;4883556;29;20037;-69
2023/03/12 04:52:38;;;;;;;16.60;3.40;;;3.20;99.90;;;;;;4884846;29;20043;-69
2023/03/12 04:55:04;;;;;;;11.70;3.05;;;3.10;99.90;;;;;;4852725;29;20045;-69
2023/03/12 04:57:30;;;;;;;7.65;3.15;;;3.20;99.90;;;;;;4852878;29;20044;-69
2023/03/12 04:59:56;;;;;;;7.70;3.03;;;3.10;99.90;;;;;;4884664;29;20089;-69
2023/03/12 05:02:21;;;;;;;9.32;3.13;;;3.10;99.90;;;;;;4852358;29;20072;-69
2023/03/12 05:04:47;;;;;;;6.45;3.08;;;3.10;99.90;;;;;;4867713;29;20041;-69
2023/03/12 05:07:13;;;;;;;15.23;3.15;;;3.20;99.90;;;;;;4868078;29;20037;-69
2023/03/12 05:09:38;;;;;;;10.75;3.17;;;3.20;99.90;;;;;;4868053;29;20131;-69
2023/03/12 05:12:04;;;;;;;5.25;2.80;;;3.20;99.90;;;;;;4884462;29;20044;-69
2023/03/12 05:14:30;;;;;;;5.45;3.15;;;3.20;99.90;;;;;;4852317;29;20036;-69
2023/03/12 05:16:56;;;;;;;8.85;3.10;;;3.10;99.90;;;;;;4837154;29;20045;-69
2023/03/12 05:19:21;;;;;;;5.97;3.08;;;3.20;99.90;;;;;;4852684;29;20100;-69
2023/03/12 05:21:47;;;;;;;11.20;3.50;;;3.10;99.90;;;;;;4884845;29;20059;-69
2023/03/12 05:24:14;;;;;;;10.10;2.88;;;3.10;99.90;;;;;;4866947;29;20085;-68
2023/03/12 05:26:40;;;;;;;9.63;3.38;;;3.10;99.90;;;;;;4867726;29;20049;-68
2023/03/12 05:29:05;;;;;;;8.80;3.10;;;3.20;99.90;;;;;;4852051;29;20052;-69
2023/03/12 05:31:33;;;;;;;9.73;2.78;;;3.20;99.90;;;;;;4883583;29;20079;-69
2023/03/12 05:34:01;;;;;;;9.95;3.42;;;3.10;99.90;;;;;;4837109;29;20049;-69
2023/03/12 05:36:26;;;;;;;7.47;3.50;;;3.10;99.90;;;;;;4867648;29;20124;-69
2023/03/12 05:38:52;;;;;;;8.52;3.45;;;3.20;99.90;;;;;;4867881;29;20479;-69
2023/03/12 05:41:27;;;;;;;9.45;2.90;;;3.10;99.90;;;;;;4851822;29;20120;-69
2023/03/12 05:43:55;;;;;;;6.70;3.00;;;3.10;99.90;;;;;;4868467;29;20049;-68
2023/03/12 05:46:21;;;;;;;6.25;2.90;;;3.20;99.90;;;;;;4851656;29;20128;-69
2023/03/12 05:48:47;;;;;;;6.88;2.97;;;3.20;99.90;;;;;;4883775;29;20335;-69
2023/03/12 05:51:13;;;;;;;6.82;2.90;;;3.30;99.90;;;;;;4852410;29;20049;-69
2023/03/12 05:53:39;;;;;;;8.05;2.97;;;3.40;99.90;;;;;;4867224;29;20052;-69
2023/03/12 05:56:07;;;;;;;8.40;3.33;;;3.50;99.90;;;;;;4867188;29;20119;-69
2023/03/12 05:58:34;;;;;;;6.75;3.15;;;3.30;99.90;;;;;;4867599;29;20067;-69
2023/03/12 06:01:00;;;;;;;6.70;2.83;;;3.40;99.90;;;;;;4851665;29;20045;-69
2023/03/12 06:03:26;;;;;;;7.78;3.22;;;3.40;99.90;;;;;;4852760;29;20071;-69
2023/03/12 06:05:54;;;;;;;6.15;3.08;;;3.40;99.90;;;;;;4867184;29;20037;-69
2023/03/12 06:08:21;;;;;;;11.77;3.60;;;3.50;99.90;;;;;;4883423;29;20048;-69
2023/03/12 06:10:49;;;;;;;7.93;3.30;;;3.30;99.90;;;;;;4837291;29;20132;-69
2023/03/12 06:13:14;;;;;;;6.68;3.20;;;3.40;99.90;;;;;;4883690;29;20037;-69
2023/03/12 06:15:40;;;;;;;10.52;3.70;;;3.30;99.90;;;;;;4866863;29;20316;-69
2023/03/12 06:18:06;;;;;;;8.85;3.33;;;3.40;99.90;;;;;;4866478;29;20049;-69
2023/03/12 06:20:31;;;;;;;7.88;3.35;;;3.40;99.90;;;;;;4852023;29;20128;-69
2023/03/12 06:22:57;;;;;;;6.60;3.38;;;3.10;99.90;;;;;;4851292;29;20056;-69
2023/03/12 06:25:23;;;;;;;6.85;3.47;;;3.30;99.90;;;;;;4882660;29;20435;-69
2023/03/12 06:27:48;;;;;;;9.13;3.90;;;3.20;99.90;;;;;;4883674;29;20041;-69
2023/03/12 06:30:15;;;;;;;10.32;3.90;;;3.20;99.90;;;;;;4851194;29;20121;-69
2023/03/12 06:32:40;;;;;;;11.18;4.15;;;3.20;99.90;;;;;;4866264;29;20033;-69
2023/03/12 06:35:06;;;;;;;12.05;4.25;;;3.20;99.90;;;;;;4866511;29;20071;-69
2023/03/12 06:37:32;;;;;;;7.63;3.40;;;3.30;99.90;;;;;;4866533;29;20057;-69
2023/03/12 06:39:58;;;;;;;7.93;4.18;;;3.40;99.90;;;;;;4866530;29;20451;-69
2023/03/12 06:42:25;;;;;;;10.52;4.22;;;3.60;99.90;;;;;;4851109;29;20049;-69
2023/03/12 06:44:51;;;;;;;9.32;4.20;;;3.70;99.90;;;;;;4881633;29;20049;-69
2023/03/12 06:47:17;;;;;;;12.05;3.90;;;3.80;99.90;;;;;;4866434;29;20108;-69
2023/03/12 06:49:42;;;;;;;8.25;3.80;;;3.80;99.90;;;;;;4882424;29;20041;-69
2023/03/12 06:52:08;;;;;;;12.02;4.53;;;3.90;99.90;;;;;;4881857;29;20036;-69
2023/03/12 06:54:34;;;;;;;12.07;4.38;;;3.70;99.90;;;;;;4882738;29;20043;-69
2023/03/12 06:57:00;;;;;;;10.40;4.65;;;3.90;99.90;;;;;;4866359;29;20431;-69
2023/03/12 06:59:26;;;;;;;11.68;4.47;;;3.80;99.90;;;;;;4866067;29;20056;-69
2023/03/12 07:01:52;;;;;;;11.27;4.97;;;4.00;99.90;;;;;;4882750;29;20112;-69
2023/03/12 07:04:18;;;;;;;12.45;4.55;;;4.00;99.90;;;;;;4882655;29;20052;-69
2023/03/12 07:06:49;;;;;;;12.75;4.43;;;4.00;99.90;;;;;;4866254;29;20053;-69
2023/03/12 07:09:15;;;;;;;15.05;5.00;;;4.00;99.90;;;;;;4866518;29;20038;-69
2023/03/12 07:11:41;;;;;;;16.23;4.80;;;3.90;99.90;;;;;;4866181;29;20052;-69
2023/03/12 07:14:07;;;;;;;9.85;4.57;;;3.80;99.90;;;;;;4882615;29;20037;-69
2023/03/12 07:16:33;;;;;;;8.75;4.53;;;4.00;99.90;;;;;;4881677;29;20419;-69
2023/03/12 07:18:59;;;;;;;14.35;5.10;;;3.90;99.90;;;;;;4882639;29;20097;-68
2023/03/12 07:21:25;;;;;;;12.52;5.60;;;3.70;99.90;;;;;;4866159;29;20045;-69
2023/03/12 07:23:51;;;;;;;10.15;5.05;;;3.70;99.90;;;;;;4881876;29;20129;-69
2023/03/12 07:26:17;;;;;;;10.63;4.90;;;3.50;99.90;;;;;;4885538;29;20056;-69
2023/03/12 07:28:43;;;;;;;9.32;5.10;;;3.30;99.90;;;;;;4854356;29;20096;-69
2023/03/12 07:31:09;;;;;;;15.68;5.70;;;3.30;99.90;;;;;;4870707;29;20044;-69
2023/03/12 07:33:35;;;;;;;13.40;5.43;;;3.40;99.90;;;;;;4869407;29;20396;-69
2023/03/12 07:36:01;;;;;;;15.95;6.45;;;3.30;99.90;;;;;;4869842;29;20056;-69
2023/03/12 07:38:27;;;;;;;11.98;6.28;;;3.20;99.90;;;;;;4853844;29;20049;-69
2023/03/12 07:40:55;;;;;;;14.00;6.57;;;3.30;99.90;;;;;;4885993;29;20045;-69
2023/03/12 07:43:21;;;;;;;12.60;6.53;;;3.30;99.90;;;;;;4886081;29;20048;-69
2023/03/12 07:45:47;;;;;;;13.73;5.78;;;3.20;99.90;;;;;;4885891;29;20064;-69
2023/03/12 07:48:13;;;;;;;14.15;6.78;;;3.30;99.90;;;;;;4869050;29;20041;-69
2023/03/12 07:50:38;;;;;;;15.23;6.82;;;3.10;99.90;;;;;;4869404;29;20041;-69
2023/03/12 07:53:04;;;;;;;19.35;7.70;;;3.00;99.90;;;;;;4885909;29;20064;-69
2023/03/12 07:55:31;;;;;;;16.90;7.35;;;2.90;99.90;;;;;;4885143;29;20067;-69
2023/03/12 07:57:57;;;;;;;19.10;8.05;;;2.70;99.90;;;;;;4886254;29;20085;-69
2023/03/12 08:00:27;;;;;;;15.20;7.10;;;2.70;99.90;;;;;;4869126;29;20085;-69
2023/03/12 08:02:53;;;;;;;17.67;8.88;;;2.70;99.90;;;;;;4885342;29;20372;-70
2023/03/12 08:05:23;;;;;;;17.42;8.35;;;2.70;99.90;;;;;;4885571;29;20045;-68
2023/03/12 08:07:50;;;;;;;13.27;7.55;;;2.70;99.90;;;;;;4868825;29;20048;-69
2023/03/12 08:10:16;;;;;;;14.43;8.45;;;2.80;99.90;;;;;;4884886;29;20041;-69
2023/03/12 08:12:42;;;;;;;15.48;8.60;;;2.80;99.90;;;;;;4885474;29;20052;-69
2023/03/12 08:15:09;;;;;;;19.98;9.15;;;3.00;99.90;;;;;;4869129;29;20343;-69
2023/03/12 08:17:35;;;;;;;19.02;9.70;;;2.90;99.90;;;;;;4885428;29;20056;-69
2023/03/12 08:20:01;;;;;;;17.42;9.05;;;2.70;99.90;;;;;;4885302;29;20097;-69
2023/03/12 08:22:26;;;;;;;14.38;8.48;;;2.60;99.90;;;;;;4885289;29;20056;-68
2023/03/12 08:24:52;;;;;;;16.98;8.55;;;2.80;99.90;;;;;;4884569;29;20116;-68
2023/03/12 08:27:18;;;;;;;14.55;8.68;;;2.70;99.90;;;;;;4869037;29;20343;-69
2023/03/12 08:29:43;;;;;;;17.13;9.10;;;2.70;99.90;;;;;;4885195;29;20041;-69
2023/03/12 08:32:09;;;;;;;17.92;9.73;;;2.70;99.90;;;;;;4884992;29;20039;-68
2023/03/12 08:34:35;;;;;;;16.95;9.13;;;2.80;99.90;;;;;;4852888;29;20049;-68
2023/03/12 08:37:02;;;;;;;15.65;8.40;;;2.90;99.90;;;;;;4884626;29;20330;-68
2023/03/12 08:39:28;;;;;;;20.00;9.88;;;2.90;99.90;;;;;;4868275;29;20048;-68
2023/03/12 08:41:54;;;;;;;18.63;8.30;;;3.00;99.90;;;;;;4853570;29;20124;-68
2023/03/12 08:44:23;;;;;;;16.10;9.10;;;3.10;99.90;;;;;;4883895;29;20116;-68
2023/03/12 08:46:50;;;;;;;18.33;9.68;;;3.20;99.90;;;;;;4883575;29;20454;-68
2023/03/12 08:49:16;;;;;;;15.32;8.82;;;3.10;99.90;;;;;;4868369;29;20056;-68
2023/03/12 08:51:42;;;;;;;19.48;9.43;;;3.20;99.90;;;;;;4868024;29;20045;-68
2023/03/12 08:54:08;;;;;;;20.67;8.98;;;3.20;99.90;;;;;;4883489;29;20109;-69
2023/03/12 08:56:36;;;;;;;16.10;8.80;;;3.40;99.90;;;;;;4884610;29;20340;-65
2023/03/12 08:59:01;;;;;;;15.88;7.72;;;3.20;99.90;;;;;;4884710;29;20364;-66
2023/03/12 09:01:27;;;;;;;14.60;8.07;;;3.20;99.90;;;;;;4884685;29;20120;-65
2023/03/12 09:03:54;;;;;;;12.18;7.65;;;3.20;99.90;;;;;;4884511;29;20335;-66
2023/03/12 09:06:19;;;;;;;15.80;7.82;;;3.40;99.90;;;;;;4884231;29;20132;-66
2023/03/12 09:08:48;;;;;;;15.77;7.22;;;3.20;99.90;;;;;;4882115;29;20434;-68
2023/03/12 09:11:14;;;;;;;14.00;7.68;;;3.20;99.90;;;;;;4883860;29;20037;-66
2023/03/12 09:13:40;;;;;;;10.43;6.85;;;3.30;99.90;;;;;;4883331;29;20045;-67
2023/03/12 09:16:07;;;;;;;15.57;7.72;;;3.40;99.90;;;;;;4883863;29;20040;-66
2023/03/12 09:18:33;;;;;;;13.25;6.45;;;3.30;99.90;;;;;;4884336;29;20052;-66
2023/03/12 09:20:59;;;;;;;17.25;7.63;;;3.20;99.90;;;;;;4884274;29;20049;-66
2023/03/12 09:23:26;;;;;;;12.35;7.90;;;3.20;99.90;;;;;;4884266;29;20045;-66
2023/03/12 09:25:52;;;;;;;14.07;7.28;;;3.30;99.90;;;;;;4883378;29;20057;-66
2023/03/12 09:28:18;;;;;;;13.10;7.57;;;3.10;99.90;;;;;;4884224;29;20119;-65
2023/03/12 09:30:44;;;;;;;20.45;8.88;;;2.90;99.90;;;;;;4878601;29;20049;-68
2023/03/12 09:33:10;;;;;;;17.42;9.43;;;2.90;99.90;;;;;;4872123;29;20045;-66
2023/03/12 09:35:36;;;;;;;16.60;9.02;;;3.00;99.90;;;;;;4883607;29;20495;-66
2023/03/12 09:38:03;;;;;;;14.18;8.75;;;3.10;99.90;;;;;;4880444;29;20045;-66
2023/03/12 09:40:30;;;;;;;14.32;9.45;;;3.00;99.90;;;;;;4883733;29;20045;-66
2023/03/12 09:43:03;;;;;;;19.63;11.25;;;3.10;99.90;;;;;;4867069;29;20056;-67
2023/03/12 09:45:35;;;;;;;16.73;9.65;;;3.20;99.90;;;;;;4883617;29;20053;-67
2023/03/12 09:48:03;;;;;;;21.05;11.38;;;3.20;99.90;;;;;;4882179;29;20049;-66
2023/03/12 09:50:33;;;;;;;19.38;11.38;;;3.10;99.90;;;;;;4882922;29;20045;-70
2023/03/12 09:53:09;;;;;;;18.38;10.50;;;3.10;99.90;;;;;;4884566;29;20454;-67
2023/03/12 09:55:39;;;;;;;20.85;11.10;;;3.00;99.90;;;;;;4900578;29;20079;-66
2023/03/12 09:58:23;;;;;;;19.15;11.35;;;3.00;99.90;;;;;;4874081;29;20041;-65
2023/03/12 10:00:53;;;;;;;20.42;10.98;;;2.90;99.90;;;;;;4870092;29;20046;-66
2023/03/12 10:03:40;;;;;;;21.58;12.95;;;2.80;99.90;;;;;;4865002;29;20049;-67
2023/03/12 10:06:06;;;;;;;;;;;2.90;99.90;;;;;;4865415;29;20052;-66
2023/03/12 10:08:43;;;;;;;17.10;11.73;;;2.90;99.90;;;;;;4865205;29;19920;-65
2023/03/12 10:11:26;;;;;;;19.10;11.82;;;2.90;99.90;;;;;;4865407;29;20101;-66
2023/03/12 10:14:07;;;;;;;22.15;13.27;;;2.90;99.90;;;;;;4864835;29;20044;-64
2023/03/12 10:16:36;;;;;;;21.10;12.90;;;3.00;99.90;;;;;;4865021;29;20117;-65
2023/03/12 10:19:28;;;;;;;22.88;13.40;;;3.10;99.90;;;;;;4864812;29;20360;-66
2023/03/12 10:22:02;;;;;;;21.95;13.95;;;3.20;99.90;;;;;;4864065;29;20056;-66
2023/03/12 10:24:49;;;;;;;22.75;13.23;;;3.30;99.90;;;;;;4869236;29;20065;-63
2023/03/12 10:27:17;;;;;;;23.55;13.70;;;3.30;99.90;;;;;;4883213;29;20081;-66
2023/03/12 10:29:47;;;;;;;19.20;13.05;;;3.30;99.90;;;;;;4883207;29;20053;-65
2023/03/12 10:32:15;;;;;;;18.80;13.23;;;3.30;99.90;;;;;;4866659;29;20053;-68
2023/03/12 10:34:53;;;;;;;20.70;14.00;;;3.20;99.90;;;;;;4866277;29;20052;-69
2023/03/12 10:37:36;;;;;;;19.23;13.23;;;3.20;99.90;;;;;;4882808;29;20116;-68
2023/03/12 10:40:04;;;;;;;22.67;14.15;;;3.30;99.90;;;;;;4883069;29;20041;-68
2023/03/12 10:42:31;;;;;;;23.27;15.88;;;3.20;99.90;;;;;;4883030;29;20097;-68
2023/03/12 10:45:31;;;;;;;25.63;15.20;;;3.10;99.90;;;;;;4882926;29;20121;-67
2023/03/12 10:48:02;;;;;;;25.00;15.32;;;3.10;99.90;;;;;;4882971;29;20037;-69
2023/03/12 10:50:32;;;;;;;21.75;14.57;;;3.30;99.90;;;;;;4883073;29;20106;-68
2023/03/12 10:53:21;;;;;;;25.60;15.60;;;3.30;99.90;;;;;;4882974;29;20168;-68
2023/03/12 10:55:59;;;;;;;29.63;17.15;;;3.30;99.90;;;;;;4882519;29;20124;-66
2023/03/12 10:58:29;;;;;;;23.40;14.88;;;3.40;99.90;;;;;;4866119;29;20132;-67
2023/03/12 11:00:57;;;;;;;27.00;16.02;;;3.50;99.90;;;;;;4886261;29;20132;-65
2023/03/12 11:03:29;;;;;;;26.58;17.80;;;3.60;99.90;;;;;;4886399;29;20466;-66
2023/03/12 11:06:00;;;;;;;28.60;17.52;;;3.70;99.90;;;;;;4886633;29;20045;-67
2023/03/12 11:08:32;;;;;;;24.85;16.58;;;3.80;99.90;;;;;;4869951;29;20412;-65
2023/03/12 11:10:59;;;;;;;30.48;18.30;;;3.60;99.90;;;;;;4886658;29;20045;-66
2023/03/12 11:13:35;;;;;;;28.55;18.10;;;3.70;99.90;;;;;;4886241;29;20447;-66
2023/03/12 11:16:16;;;;;;;28.05;17.95;;;3.70;99.90;;;;;;4886279;29;20428;-66
2023/03/12 11:18:58;;;;;;;34.63;19.90;;;3.60;99.90;;;;;;4886500;29;20056;-66
2023/03/12 11:21:24;;;;;;;28.75;18.88;;;3.90;99.90;;;;;;4869688;29;20056;-67
2023/03/12 11:23:56;;;;;;;35.30;19.05;;;3.90;99.90;;;;;;4886239;29;20049;-70
2023/03/12 11:26:38;;;;;;;31.50;19.05;;;3.90;99.90;;;;;;4885916;29;20092;-67
2023/03/12 11:29:13;;;;;;;27.40;17.40;;;3.80;99.90;;;;;;4886301;29;20049;-66
2023/03/12 11:31:49;;;;;;;31.63;18.23;;;4.00;99.90;;;;;;4886287;29;20041;-66
2023/03/12 11:34:23;;;;;;;;;;;3.90;99.90;;;;;;4886756;29;20327;-66
2023/03/12 11:36:48;;;;;;;26.48;16.35;;;4.00;99.90;;;;;;4900535;29;19926;-67
2023/03/12 11:39:48;;;;;;;25.33;16.15;;;4.20;99.90;;;;;;4886084;29;20045;-66
2023/03/12 11:42:52;;;;;;;24.98;16.17;;;4.20;99.90;;;;;;4886098;29;20111;-66
2023/03/12 11:45:42;;;;;;;34.08;17.70;;;4.40;99.90;;;;;;4886012;29;20056;-67
2023/03/12 11:48:17;;;;;;;33.92;17.70;;;4.60;99.90;;;;;;4869745;29;20328;-66
2023/03/12 11:50:59;;;;;;;36.95;18.80;;;4.70;99.90;;;;;;4885755;29;20050;-66
2023/03/12 11:53:42;;;;;;;29.42;17.20;;;4.70;99.90;;;;;;4885900;29;20044;-66
2023/03/12 11:56:20;;;;;;;23.08;15.25;;;4.90;99.90;;;;;;4885465;29;20097;-66
2023/03/12 11:58:57;;;;;;;32.17;17.05;;;5.00;99.90;;;;;;4885769;29;20432;-67
2023/03/12 12:01:44;;;;;;;27.25;16.00;;;5.10;99.90;;;;;;4885519;29;20097;-65
2023/03/12 12:04:30;;;;;;;27.02;16.73;;;5.10;99.90;;;;;;4885761;29;20048;-65
2023/03/12 12:07:03;;;;;;;;;;;5.20;99.90;;;;;;4886215;29;20049;-65
2023/03/12 12:09:39;;;;;;;27.58;15.65;;;5.30;99.90;;;;;;4884780;29;19920;-65
2023/03/12 12:12:07;;;;;;;27.00;17.50;;;5.30;99.90;;;;;;4884672;29;20056;-65
2023/03/12 12:14:45;;;;;;;36.72;20.25;;;5.40;99.90;;;;;;4885265;29;20064;-66
2023/03/12 12:17:29;;;;;;;35.17;18.58;;;5.60;99.90;;;;;;4885507;29;20077;-67
2023/03/12 12:20:07;;;;;;;27.58;16.70;;;5.70;99.90;;;;;;4885442;29;20049;-65
2023/03/12 12:22:48;;;;;;;41.90;20.98;;;5.80;99.90;;;;;;4868600;29;20060;-65
2023/03/12 12:25:50;;;;;;;37.00;18.42;;;5.90;99.90;;;;;;4882398;29;20095;-65
2023/03/12 12:28:21;;;;;;;37.78;18.90;;;6.10;99.90;;;;;;4883990;29;20045;-66
2023/03/12 12:31:24;;;;;;;36.67;19.42;;;6.20;99.90;;;;;;4885037;29;20037;-66
2023/03/12 12:34:17;;;;;;;35.63;18.48;;;6.20;99.90;;;;;;4884843;29;20432;-66
2023/03/12 12:36:49;;;;;;;29.98;18.17;;;6.20;99.90;;;;;;4885127;29;20108;-66
2023/03/12 12:39:21;;;;;;;53.03;23.40;;;6.30;99.90;;;;;;4868429;29;20041;-67
2023/03/12 12:41:53;;;;;;;31.90;18.52;;;6.50;99.90;;;;;;4885056;29;20037;-68
2023/03/12 12:44:24;;;;;;;59.35;23.98;;;6.50;99.90;;;;;;4884934;29;20037;-69
2023/03/12 12:46:57;;;;;;;48.60;22.63;;;6.60;99.90;;;;;;4884928;29;20083;-68
2023/03/12 12:49:53;;;;;;;51.92;22.90;;;6.60;99.90;;;;;;4884889;29;20056;-68
2023/03/12 12:52:20;;;;;;;52.92;23.35;;;6.70;99.90;;;;;;4884875;29;20033;-68
2023/03/12 12:55:02;;;;;;;63.80;24.63;;;6.70;99.90;;;;;;4884051;29;20470;-68
2023/03/12 12:57:40;;;;;;;69.28;24.75;;;6.80;99.90;;;;;;4884774;29;20055;-68
2023/03/12 13:00:46;;;;;;;59.85;24.95;;;7.00;99.90;;;;;;4884651;29;20041;-68
2023/03/12 13:03:18;;;;;;;75.47;26.92;;;7.00;99.90;;;;;;4868262;29;20087;-68